Whitefish Falls, Canada
Current Conditions -  °F | °C
As of 9:00 AM on Monday 20 Oct 2014 (Local Time) from CYZE Reporting Station
Haze Haze  
Wind Chill: 46°   Ceiling: 600
Heat Index: 48°   Visibility: 4mi
Dew Point: 46°   Wind: 5mph
Humidity: 93%   Direction: 210°SSW
Pressure: 29.75"   Gusts: NA
Location:  46.1°N, 81.72°W
Report Text: CYZE 201300Z AUTO 21004KT 4SM BR BKN006 OVC009 09/08 A2975 RMK SLP078
Loading
Personal Weather Stations






























Interactive Weather Map
Tropical Storm Tracking
New forecast layout! Learn more

10-Day Weather Forecast

Advertisements
Track Severe Weather on mobile